createdAt,value
2022-09-09T00:00:48.601Z,401.70
2022-09-09T00:01:48.563Z,421.30
2022-09-09T00:02:48.648Z,412.10
2022-09-09T00:03:48.555Z,407.80
2022-09-09T00:04:48.510Z,409.90
2022-09-09T00:05:48.545Z,408.70
2022-09-09T00:06:48.490Z,411.70
2022-09-09T00:07:48.516Z,411.70
2022-09-09T00:08:48.477Z,414.80
2022-09-09T00:09:48.494Z,426.10
2022-09-09T00:10:48.465Z,420.70
2022-09-09T00:11:48.444Z,416.40
2022-09-09T00:12:48.404Z,421.40
2022-09-09T00:13:48.390Z,415.40
2022-09-09T00:14:48.398Z,408.10
2022-09-09T00:15:48.492Z,407.10
2022-09-09T00:16:48.384Z,403.60
2022-09-09T00:17:48.354Z,403.40
2022-09-09T00:18:48.349Z,400.60
2022-09-09T00:19:48.350Z,411.50
2022-09-09T00:20:48.389Z,411.50
2022-09-09T00:21:48.361Z,420.30
2022-09-09T00:22:48.320Z,413.70
2022-09-09T00:23:48.315Z,418.50
2022-09-09T00:24:48.319Z,417.70
2022-09-09T00:25:52.249Z,411.60
2022-09-09T00:26:48.265Z,417.00
2022-09-09T00:27:48.277Z,397.90
2022-09-09T00:28:48.239Z,399.20
2022-09-09T00:29:48.239Z,402.40
2022-09-09T00:30:48.263Z,402.80
2022-09-09T00:31:48.221Z,403.10
2022-09-09T00:32:48.212Z,411.20
2022-09-09T00:33:48.189Z,407.40
2022-09-09T00:34:48.186Z,408.40
2022-09-09T00:35:48.233Z,406.70
2022-09-09T00:36:48.161Z,410.80
2022-09-09T00:37:48.156Z,402.20
2022-09-09T00:38:48.120Z,398.80
2022-09-09T00:39:48.166Z,404.00
2022-09-09T00:40:48.169Z,404.80
2022-09-09T00:41:48.114Z,406.40
2022-09-09T00:42:48.235Z,405.40
2022-09-09T00:43:48.070Z,406.10
2022-09-09T00:44:48.046Z,409.90
2022-09-09T00:45:48.158Z,410.70
2022-09-09T00:46:48.056Z,408.30
2022-09-09T00:47:48.032Z,418.70
2022-09-09T00:48:48.023Z,444.00
2022-09-09T00:49:48.023Z,446.60
2022-09-09T00:50:48.041Z,452.20
2022-09-09T00:51:48.016Z,451.40
2022-09-09T00:52:47.967Z,454.90
2022-09-09T00:53:47.973Z,458.50
2022-09-09T00:54:47.966Z,440.30
2022-09-09T00:55:48.013Z,435.10
2022-09-09T00:56:47.944Z,441.50
2022-09-09T00:57:47.947Z,437.10
2022-09-09T00:58:47.929Z,434.50
2022-09-09T00:59:47.915Z,435.30
2022-09-09T01:00:47.948Z,434.50
2022-09-09T01:01:47.943Z,445.70
2022-09-09T01:02:47.906Z,444.70
2022-09-09T01:03:47.851Z,425.70
2022-09-09T01:04:47.864Z,431.40
2022-09-09T01:05:47.895Z,433.60
2022-09-09T01:06:47.857Z,432.10
2022-09-09T01:07:47.807Z,426.40
2022-09-09T01:08:47.820Z,433.20
2022-09-09T01:09:47.794Z,423.80
2022-09-09T01:10:47.819Z,423.10
2022-09-09T01:11:47.804Z,433.10
2022-09-09T01:12:47.755Z,434.40
2022-09-09T01:13:47.738Z,431.20
2022-09-09T01:14:47.729Z,438.90
2022-09-09T01:15:47.789Z,426.60
2022-09-09T01:16:47.760Z,421.90
2022-09-09T01:17:47.726Z,426.40
2022-09-09T01:18:47.722Z,429.50
2022-09-09T01:19:47.684Z,437.00
2022-09-09T01:20:47.735Z,436.30
2022-09-09T01:21:47.679Z,427.40
2022-09-09T01:22:47.665Z,421.50
2022-09-09T01:23:47.627Z,427.50
2022-09-09T01:24:47.647Z,422.00
2022-09-09T01:25:47.670Z,430.30
2022-09-09T01:26:47.627Z,424.40
2022-09-09T01:27:47.610Z,427.30
2022-09-09T01:28:47.605Z,426.10
2022-09-09T01:29:47.577Z,426.30
2022-09-09T01:30:47.757Z,424.70
2022-09-09T01:31:47.558Z,421.20
2022-09-09T01:32:47.564Z,423.40
2022-09-09T01:33:47.541Z,425.00
2022-09-09T01:34:47.526Z,454.90
2022-09-09T01:35:47.541Z,500.50
2022-09-09T01:36:47.499Z,525.00
2022-09-09T01:37:47.495Z,483.00
2022-09-09T01:38:47.471Z,479.10
2022-09-09T01:39:47.531Z,464.00
2022-09-09T01:40:47.506Z,463.70
2022-09-09T01:41:47.448Z,453.70
2022-09-09T01:42:47.441Z,440.20
2022-09-09T01:43:47.415Z,434.60
2022-09-09T01:44:47.409Z,430.30
2022-09-09T01:45:47.477Z,421.30
2022-09-09T01:46:47.416Z,419.20
2022-09-09T01:47:47.377Z,421.40
2022-09-09T01:48:47.384Z,414.50
2022-09-09T01:49:47.368Z,404.60
2022-09-09T01:50:47.398Z,404.00
2022-09-09T01:51:47.307Z,404.30
2022-09-09T01:52:47.335Z,405.10
2022-09-09T01:53:47.318Z,408.10
2022-09-09T01:54:47.292Z,412.80
2022-09-09T01:55:47.323Z,413.20
2022-09-09T01:56:47.289Z,405.40
2022-09-09T01:57:47.285Z,411.00
2022-09-09T01:58:47.285Z,416.80
2022-09-09T01:59:47.251Z,412.10
2022-09-09T02:00:47.336Z,412.50
2022-09-09T02:01:47.222Z,408.10
2022-09-09T02:02:47.293Z,399.40
2022-09-09T02:03:47.183Z,389.80
2022-09-09T02:04:47.193Z,384.40
2022-09-09T02:05:47.222Z,384.70
2022-09-09T02:06:47.178Z,379.80
2022-09-09T02:07:47.146Z,382.20
2022-09-09T02:08:47.159Z,393.10
2022-09-09T02:09:47.139Z,385.80
2022-09-09T02:10:47.167Z,380.50
2022-09-09T02:11:47.129Z,375.50
2022-09-09T02:12:47.091Z,378.90
2022-09-09T02:13:47.081Z,369.30
2022-09-09T02:14:47.059Z,368.70
2022-09-09T02:15:47.096Z,367.60
2022-09-09T02:16:47.113Z,373.50
2022-09-09T02:17:47.044Z,367.20
2022-09-09T02:18:47.033Z,354.50
2022-09-09T02:19:47.051Z,359.10
2022-09-09T02:20:47.060Z,363.00
2022-09-09T02:21:47.006Z,361.70
2022-09-09T02:22:47.039Z,358.30
2022-09-09T02:23:46.966Z,359.40
2022-09-09T02:24:46.984Z,358.40
2022-09-09T02:25:47.018Z,351.20
2022-09-09T02:26:46.985Z,347.30
2022-09-09T02:27:46.943Z,346.50
2022-09-09T02:28:46.925Z,347.20
2022-09-09T02:29:46.935Z,340.50
2022-09-09T02:30:46.980Z,347.70
2022-09-09T02:31:46.899Z,338.40
2022-09-09T02:32:46.883Z,340.10
2022-09-09T02:33:46.873Z,339.50
2022-09-09T02:34:46.932Z,339.60
2022-09-09T02:35:46.846Z,342.80
2022-09-09T02:36:46.855Z,350.20
2022-09-09T02:37:46.820Z,346.70
2022-09-09T02:38:46.810Z,344.40
2022-09-09T02:39:46.824Z,338.00
2022-09-09T02:40:46.836Z,340.00
2022-09-09T02:41:46.766Z,334.50
2022-09-09T02:42:46.744Z,334.40
2022-09-09T02:43:46.735Z,330.90
2022-09-09T02:44:46.753Z,339.40
2022-09-09T02:45:46.860Z,336.50
2022-09-09T02:46:46.722Z,335.30
2022-09-09T02:47:46.709Z,331.80
2022-09-09T02:48:46.705Z,329.40
2022-09-09T02:49:46.710Z,333.50
2022-09-09T02:50:46.719Z,335.60
2022-09-09T02:51:46.674Z,341.00
2022-09-09T02:52:46.656Z,357.00
2022-09-09T02:53:46.648Z,372.30
2022-09-09T02:54:46.648Z,413.90
2022-09-09T02:55:46.683Z,418.50
2022-09-09T02:56:46.618Z,416.10
2022-09-09T02:57:46.604Z,392.30
2022-09-09T02:58:46.616Z,375.50
2022-09-09T02:59:46.579Z,355.10
2022-09-09T03:00:46.632Z,355.80
2022-09-09T03:01:46.550Z,349.40
2022-09-09T03:02:46.583Z,348.20
2022-09-09T03:03:46.545Z,349.30
2022-09-09T03:04:46.503Z,345.50
2022-09-09T03:05:46.548Z,343.60
2022-09-09T03:06:46.505Z,339.50
2022-09-09T03:07:46.487Z,344.20
2022-09-09T03:08:49.363Z,340.50
2022-09-09T03:09:46.473Z,338.50
2022-09-09T03:10:46.494Z,342.80
2022-09-09T03:11:46.415Z,340.30
2022-09-09T03:12:46.412Z,341.50
2022-09-09T03:13:46.395Z,331.90
2022-09-09T03:14:46.452Z,334.30
2022-09-09T03:15:46.431Z,322.00
2022-09-09T03:16:46.422Z,320.60
2022-09-09T03:17:46.396Z,325.80
2022-09-09T03:18:46.351Z,326.70
2022-09-09T03:19:46.375Z,331.20
2022-09-09T03:20:46.396Z,329.30
2022-09-09T03:21:46.335Z,328.90
2022-09-09T03:22:46.327Z,328.70
2022-09-09T03:23:46.298Z,335.20
2022-09-09T03:24:46.299Z,353.40
2022-09-09T03:25:46.321Z,363.80
2022-09-09T03:26:46.316Z,381.70
2022-09-09T03:27:46.250Z,376.50
2022-09-09T03:28:46.252Z,365.70
2022-09-09T03:29:46.232Z,356.40
2022-09-09T03:30:46.275Z,357.00
2022-09-09T03:31:46.353Z,340.50
2022-09-09T03:32:49.002Z,344.00
2022-09-09T03:33:46.215Z,345.90
2022-09-09T03:34:46.171Z,340.40
2022-09-09T03:35:46.200Z,334.50
2022-09-09T03:36:46.158Z,326.20
2022-09-09T03:37:46.136Z,332.10
2022-09-09T03:38:46.137Z,323.40
2022-09-09T03:39:46.145Z,332.30
2022-09-09T03:40:46.136Z,326.60
2022-09-09T03:41:46.109Z,325.20
2022-09-09T03:42:46.069Z,319.60
2022-09-09T03:43:46.060Z,324.60
2022-09-09T03:44:46.066Z,328.20
2022-09-09T03:45:46.096Z,324.40
2022-09-09T03:46:46.045Z,320.80
2022-09-09T03:47:46.038Z,315.00
2022-09-09T03:48:46.008Z,308.00
2022-09-09T03:49:46.018Z,309.90
2022-09-09T03:50:46.060Z,310.30
2022-09-09T03:51:45.973Z,314.30
2022-09-09T03:52:45.964Z,320.70
2022-09-09T03:53:45.949Z,318.70
2022-09-09T03:54:45.966Z,313.00
2022-09-09T03:55:45.983Z,317.60
2022-09-09T03:56:45.953Z,316.40
2022-09-09T03:57:45.925Z,315.60
2022-09-09T03:58:45.890Z,320.80
2022-09-09T03:59:45.912Z,323.00
2022-09-09T04:00:46.102Z,317.60
2022-09-09T04:01:45.923Z,319.40
2022-09-09T04:02:45.859Z,322.60
2022-09-09T04:03:45.836Z,310.70
2022-09-09T04:04:45.835Z,316.50
2022-09-09T04:05:45.855Z,312.40
2022-09-09T04:06:45.822Z,315.80
2022-09-09T04:07:45.802Z,330.90
2022-09-09T04:08:45.793Z,343.10
2022-09-09T04:09:45.786Z,341.50
2022-09-09T04:10:45.805Z,341.90
2022-09-09T04:11:45.745Z,337.80
2022-09-09T04:12:48.988Z,343.80
2022-09-09T04:13:45.726Z,338.50
2022-09-09T04:14:45.734Z,341.10
2022-09-09T04:15:45.746Z,347.60
2022-09-09T04:16:45.941Z,338.80
2022-09-09T04:17:45.696Z,337.20
2022-09-09T04:18:45.711Z,346.50
2022-09-09T04:19:45.671Z,349.90
2022-09-09T04:20:45.688Z,367.20
2022-09-09T04:21:45.640Z,376.30
2022-09-09T04:22:45.649Z,392.20
2022-09-09T04:23:45.633Z,410.50
2022-09-09T04:24:48.775Z,418.70
2022-09-09T04:25:45.656Z,418.30
2022-09-09T04:26:45.578Z,415.50
2022-09-09T04:27:45.586Z,403.20
2022-09-09T04:28:45.555Z,409.40
2022-09-09T04:29:45.558Z,395.90
2022-09-09T04:30:45.586Z,404.10
2022-09-09T04:31:45.563Z,437.50
2022-09-09T04:32:45.520Z,467.20
2022-09-09T04:33:45.504Z,475.40
2022-09-09T04:34:45.504Z,469.80
2022-09-09T04:35:45.529Z,475.00
2022-09-09T04:36:45.473Z,488.40
2022-09-09T04:37:45.468Z,477.80
2022-09-09T04:38:45.477Z,458.00
2022-09-09T04:39:45.474Z,433.80
2022-09-09T04:40:45.447Z,407.00
2022-09-09T04:41:45.385Z,390.40
2022-09-09T04:42:45.389Z,382.00
2022-09-09T04:43:45.407Z,370.30
2022-09-09T04:44:45.385Z,361.20
2022-09-09T04:45:45.425Z,377.30
2022-09-09T04:46:45.355Z,380.30
2022-09-09T04:47:45.373Z,386.10
2022-09-09T04:48:45.349Z,396.20
2022-09-09T04:49:45.318Z,390.90
2022-09-09T04:50:45.335Z,398.30
2022-09-09T04:51:45.287Z,397.40
2022-09-09T04:52:45.295Z,385.00
2022-09-09T04:53:45.290Z,388.90
2022-09-09T04:54:45.289Z,387.50
2022-09-09T04:55:45.300Z,386.60
2022-09-09T04:56:45.240Z,395.40
2022-09-09T04:57:45.230Z,393.50
2022-09-09T04:58:45.210Z,401.40
2022-09-09T04:59:45.233Z,401.00
2022-09-09T05:00:45.306Z,408.90
2022-09-09T05:01:45.259Z,401.70
2022-09-09T05:02:45.198Z,410.40
2022-09-09T05:03:45.157Z,419.60
2022-09-09T05:04:45.183Z,421.20
2022-09-09T05:05:45.167Z,449.40
2022-09-09T05:06:45.146Z,462.30
2022-09-09T05:07:45.120Z,467.10
2022-09-09T05:08:45.120Z,480.60
2022-09-09T05:09:45.129Z,493.50
2022-09-09T05:10:45.059Z,502.30
2022-09-09T05:11:45.047Z,516.20
2022-09-09T05:12:45.064Z,524.90
2022-09-09T05:13:45.071Z,553.10
2022-09-09T05:14:45.035Z,578.30
2022-09-09T05:15:45.069Z,594.70
2022-09-09T05:16:45.089Z,588.80
2022-09-09T05:17:44.998Z,583.70
2022-09-09T05:18:45.013Z,588.40
2022-09-09T05:19:44.984Z,593.20
2022-09-09T05:20:44.998Z,590.50
2022-09-09T05:21:44.951Z,578.80
2022-09-09T05:22:44.964Z,585.10
2022-09-09T05:23:44.959Z,582.50
2022-09-09T05:24:44.938Z,585.80
2022-09-09T05:25:44.977Z,589.30
2022-09-09T05:26:44.896Z,593.30
2022-09-09T05:27:44.914Z,606.20
2022-09-09T05:28:44.872Z,611.40
2022-09-09T05:29:44.883Z,603.20
2022-09-09T05:30:44.903Z,604.20
2022-09-09T05:31:44.883Z,593.20
2022-09-09T05:32:44.839Z,600.00
2022-09-09T05:33:44.845Z,615.90
2022-09-09T05:34:44.833Z,643.20
2022-09-09T05:35:44.847Z,659.60
2022-09-09T05:36:44.818Z,656.20
2022-09-09T05:37:44.784Z,660.70
2022-09-09T05:38:44.746Z,667.10
2022-09-09T05:39:44.779Z,663.10
2022-09-09T05:40:44.772Z,647.90
2022-09-09T05:41:44.735Z,654.80
2022-09-09T05:42:44.723Z,658.60
2022-09-09T05:43:44.700Z,652.20
2022-09-09T05:44:44.687Z,663.40
2022-09-09T05:45:44.729Z,666.40
2022-09-09T05:46:44.743Z,661.80
2022-09-09T05:47:44.664Z,660.60
2022-09-09T05:48:44.651Z,663.40
2022-09-09T05:49:44.630Z,659.30
2022-09-09T05:50:44.654Z,649.90
2022-09-09T05:51:44.633Z,641.40
2022-09-09T05:52:44.611Z,642.00
2022-09-09T05:53:44.589Z,629.80
2022-09-09T05:54:44.584Z,621.70
2022-09-09T05:55:44.627Z,620.90
2022-09-09T05:56:46.174Z,606.60
2022-09-09T05:57:44.579Z,610.30
2022-09-09T05:58:44.536Z,593.50
2022-09-09T05:59:44.537Z,580.90
2022-09-09T06:00:44.583Z,587.80
2022-09-09T06:01:44.587Z,584.00
2022-09-09T06:02:44.610Z,583.00
2022-09-09T06:03:44.499Z,592.30
2022-09-09T06:04:44.469Z,590.10
2022-09-09T06:05:44.514Z,597.70
2022-09-09T06:06:44.465Z,598.30
2022-09-09T06:07:44.443Z,585.00
2022-09-09T06:08:44.411Z,570.90
2022-09-09T06:09:44.415Z,579.60
2022-09-09T06:10:44.439Z,106.50
2022-09-09T06:11:44.386Z,113.80
2022-09-09T06:12:44.364Z,115.40
2022-09-09T06:13:44.377Z,119.70
2022-09-09T06:14:46.415Z,142.50
2022-09-09T06:15:44.402Z,365.90
2022-09-09T06:16:44.395Z,617.20
2022-09-09T06:17:44.339Z,598.40
2022-09-09T06:18:44.303Z,557.30
2022-09-09T06:19:44.305Z,276.30
2022-09-09T06:20:44.324Z,619.80
2022-09-09T06:21:44.264Z,412.90
2022-09-09T06:22:44.276Z,603.10
2022-09-09T06:23:44.252Z,195.60
2022-09-09T06:24:44.254Z,152.90
2022-09-09T06:25:44.254Z,528.90
2022-09-09T06:26:44.244Z,204.60
2022-09-09T06:27:44.211Z,541.00
2022-09-09T06:28:44.203Z,258.50
2022-09-09T06:29:44.199Z,479.70
2022-09-09T06:30:44.219Z,665.60
2022-09-09T06:31:44.256Z,139.10
2022-09-09T06:32:44.158Z,163.40
2022-09-09T06:33:44.163Z,170.80
2022-09-09T06:34:44.124Z,97.50
2022-09-09T06:35:44.143Z,110.60
2022-09-09T06:36:44.073Z,97.40
2022-09-09T06:37:44.092Z,76.70
2022-09-09T06:38:44.096Z,91.50
2022-09-09T06:39:44.121Z,118.00
2022-09-09T06:40:44.109Z,117.10
2022-09-09T06:41:44.132Z,86.70
2022-09-09T06:42:44.049Z,111.40
2022-09-09T06:43:44.035Z,110.10
2022-09-09T06:44:44.006Z,106.00
2022-09-09T06:45:44.071Z,105.90
2022-09-09T06:46:44.037Z,101.20
2022-09-09T06:47:44.015Z,91.10
2022-09-09T06:48:43.982Z,86.60
2022-09-09T06:49:47.750Z,97.20
2022-09-09T06:50:43.964Z,108.80
2022-09-09T06:51:44.227Z,111.20
2022-09-09T06:52:43.933Z,98.80
2022-09-09T06:53:43.912Z,80.10
2022-09-09T06:54:43.932Z,89.00
2022-09-09T06:55:43.902Z,91.50
2022-09-09T06:56:43.919Z,81.60
2022-09-09T06:57:43.872Z,69.80
2022-09-09T06:58:43.844Z,78.70
2022-09-09T06:59:43.858Z,106.80
2022-09-09T07:00:43.875Z,109.80
2022-09-09T07:01:43.904Z,79.20
2022-09-09T07:02:43.834Z,81.70
2022-09-09T07:03:43.803Z,102.60
2022-09-09T07:04:43.791Z,129.40
2022-09-09T07:05:43.772Z,127.70
2022-09-09T07:06:43.798Z,82.20
2022-09-09T07:07:43.754Z,55.70
2022-09-09T07:08:55.319Z,32.20
2022-09-09T07:09:44.743Z,23.90
2022-09-09T07:10:43.729Z,17.90
2022-09-09T07:11:43.770Z,23.10
2022-09-09T07:12:43.715Z,25.40
2022-09-09T07:13:43.699Z,28.20
2022-09-09T07:14:43.683Z,27.70
2022-09-09T07:15:43.726Z,20.90
2022-09-09T07:16:43.699Z,24.70
2022-09-09T07:17:43.651Z,39.80
2022-09-09T07:18:43.644Z,31.60
2022-09-09T07:19:43.649Z,24.10
2022-09-09T07:20:43.628Z,24.50
2022-09-09T07:21:43.640Z,20.70
2022-09-09T07:22:43.610Z,17.60
2022-09-09T07:23:43.585Z,16.50
2022-09-09T07:24:43.609Z,22.00
2022-09-09T07:25:43.560Z,26.40
2022-09-09T07:26:43.595Z,28.60
2022-09-09T07:27:43.542Z,36.10
2022-09-09T07:28:43.547Z,36.40
2022-09-09T07:29:43.530Z,35.00
2022-09-09T07:30:43.525Z,34.50
2022-09-09T07:31:43.597Z,20.90
2022-09-09T07:32:43.517Z,13.40
2022-09-09T07:33:43.485Z,13.20
2022-09-09T07:34:43.455Z,12.90
2022-09-09T07:35:43.470Z,12.90
2022-09-09T07:36:43.460Z,14.40
2022-09-09T07:37:45.746Z,18.20
2022-09-09T07:38:44.404Z,18.90
2022-09-09T07:39:43.441Z,23.10
2022-09-09T07:40:43.403Z,25.10
2022-09-09T07:41:43.469Z,11.30
2022-09-09T07:42:43.369Z,8.90
2022-09-09T07:43:43.368Z,9.60
2022-09-09T07:44:43.362Z,10.90
2022-09-09T07:45:43.364Z,11.10
2022-09-09T07:46:43.439Z,13.00
2022-09-09T07:47:43.344Z,13.30
2022-09-09T07:48:43.293Z,12.60
2022-09-09T07:49:43.306Z,12.30
2022-09-09T07:50:43.269Z,10.80
2022-09-09T07:51:43.315Z,11.30
2022-09-09T07:52:43.261Z,11.90
2022-09-09T07:53:43.264Z,10.10
2022-09-09T07:54:43.249Z,10.20
2022-09-09T07:55:43.241Z,10.50
2022-09-09T07:56:43.251Z,10.70
2022-09-09T07:57:43.207Z,10.70
2022-09-09T07:58:43.201Z,10.60
2022-09-09T07:59:43.195Z,11.30
2022-09-09T08:00:43.185Z,11.10
2022-09-09T08:01:43.245Z,10.90
2022-09-09T08:02:43.209Z,10.20
2022-09-09T08:03:43.144Z,11.30
2022-09-09T08:04:43.118Z,10.80
2022-09-09T08:05:43.114Z,9.60
2022-09-09T08:06:43.159Z,10.20
2022-09-09T08:07:43.100Z,9.10
2022-09-09T08:08:43.078Z,8.10
2022-09-09T08:09:43.120Z,7.90
2022-09-09T08:10:43.061Z,7.70
2022-09-09T08:11:43.092Z,8.00
2022-09-09T08:13:01.346Z,8.10
2022-09-09T08:13:44.058Z,8.00
2022-09-09T08:14:43.022Z,8.20
2022-09-09T08:15:43.084Z,8.20
2022-09-09T08:16:43.025Z,7.50
2022-09-09T08:17:42.986Z,7.10
2022-09-09T08:18:42.967Z,7.60
2022-09-09T08:19:42.944Z,7.50
2022-09-09T08:20:42.981Z,7.00
2022-09-09T08:21:43.017Z,6.80
2022-09-09T08:22:42.939Z,7.40
2022-09-09T08:23:42.927Z,6.80
2022-09-09T08:24:42.939Z,6.80
2022-09-09T08:25:42.920Z,7.90
2022-09-09T08:26:42.945Z,8.30
2022-09-09T08:27:42.913Z,9.40
2022-09-09T08:28:42.852Z,10.70
2022-09-09T08:29:42.853Z,10.40
2022-09-09T08:30:42.861Z,10.00
2022-09-09T08:31:42.890Z,8.80
2022-09-09T08:32:45.554Z,9.10
2022-09-09T08:33:42.827Z,9.40
2022-09-09T08:34:46.726Z,9.20
2022-09-09T08:35:42.797Z,31.40
2022-09-09T08:36:42.832Z,62.20
2022-09-09T08:37:42.771Z,47.40
2022-09-09T08:38:42.755Z,114.90
2022-09-09T08:39:42.771Z,93.80
2022-09-09T08:40:42.758Z,775.00
2022-09-09T08:41:42.732Z,649.10
2022-09-09T08:42:42.744Z,375.00
2022-09-09T08:43:42.709Z,82.50
2022-09-09T08:44:46.860Z,715.00
2022-09-09T08:45:43.688Z,96.50
2022-09-09T08:46:42.776Z,18.90
2022-09-09T08:47:42.681Z,88.60
2022-09-09T08:48:42.674Z,693.50
2022-09-09T08:49:42.640Z,254.70
2022-09-09T08:50:42.659Z,829.50
2022-09-09T08:51:42.673Z,933.70
2022-09-09T08:52:42.591Z,653.20
2022-09-09T08:53:42.597Z,741.90
2022-09-09T08:54:52.220Z,631.30
2022-09-09T08:55:43.612Z,548.10
2022-09-09T08:56:42.607Z,806.20
2022-09-09T08:57:42.562Z,642.80
2022-09-09T08:58:42.531Z,581.90
2022-09-09T08:59:42.531Z,658.40
2022-09-09T09:00:42.509Z,878.60
2022-09-09T09:01:42.584Z,1175.20
2022-09-09T09:02:42.480Z,1101.00
2022-09-09T09:03:42.462Z,1106.30
2022-09-09T09:04:42.572Z,1216.60
2022-09-09T09:05:42.485Z,993.10
2022-09-09T09:06:42.478Z,953.30
2022-09-09T09:07:42.477Z,1107.60
2022-09-09T09:08:42.417Z,1040.60
2022-09-09T09:09:42.450Z,1999.90
2022-09-09T09:10:43.038Z,1999.90
2022-09-09T09:11:42.397Z,1999.90
2022-09-09T09:12:42.435Z,1150.60
2022-09-09T09:13:44.002Z,1999.90
2022-09-09T09:14:44.574Z,1999.90
2022-09-09T09:15:42.390Z,1999.90
2022-09-09T09:16:42.344Z,1999.90
2022-09-09T09:17:42.369Z,1999.90
2022-09-09T09:18:42.348Z,1999.90
2022-09-09T09:19:42.329Z,1220.10
2022-09-09T09:20:42.304Z,1999.90
2022-09-09T09:21:42.291Z,1999.90
2022-09-09T09:22:42.308Z,1999.90
2022-09-09T09:23:42.300Z,1999.90
2022-09-09T09:24:42.251Z,1999.90
2022-09-09T09:25:42.250Z,1999.90
2022-09-09T09:26:42.271Z,1999.90
2022-09-09T09:27:42.260Z,1999.90
2022-09-09T09:28:42.209Z,1015.10
2022-09-09T09:30:04.148Z,967.40
2022-09-09T09:30:43.236Z,1090.30
2022-09-09T09:31:42.211Z,1012.30
2022-09-09T09:32:42.196Z,1092.40
2022-09-09T09:33:42.155Z,953.10
2022-09-09T09:34:42.165Z,993.70
2022-09-09T09:35:44.428Z,851.80
2022-09-09T09:36:42.173Z,886.60
2022-09-09T09:40:43.070Z,839.00
2022-09-09T09:41:42.109Z,674.70
2022-09-09T09:42:42.065Z,756.60
2022-09-09T09:43:42.062Z,892.90
2022-09-09T09:44:42.052Z,913.30
2022-09-09T09:45:46.742Z,921.80
2022-09-09T09:46:43.077Z,944.40
2022-09-09T09:47:42.028Z,857.20
2022-09-09T09:48:42.019Z,827.90
2022-09-09T09:49:42.009Z,855.80
2022-09-09T09:50:41.982Z,925.60
2022-09-09T09:51:42.007Z,956.40
2022-09-09T09:52:41.965Z,857.60
2022-09-09T09:53:41.967Z,924.10
2022-09-09T09:54:41.958Z,993.80
2022-09-09T09:55:41.935Z,1006.80
2022-09-09T09:56:41.972Z,935.40
2022-09-09T09:57:41.932Z,889.60
2022-09-09T09:58:41.934Z,881.20
2022-09-09T09:59:41.984Z,908.90
2022-09-09T10:00:41.900Z,926.70
2022-09-09T10:01:41.958Z,836.10
2022-09-09T10:02:41.837Z,583.30
2022-09-09T10:03:41.823Z,628.70
2022-09-09T10:04:41.900Z,539.00
2022-09-09T10:05:41.819Z,600.30
2022-09-09T10:06:41.820Z,262.30
2022-09-09T10:07:41.860Z,82.80
2022-09-09T10:08:41.804Z,198.10
2022-09-09T10:09:41.769Z,271.60
2022-09-09T10:10:45.030Z,484.60
2022-09-09T10:11:42.831Z,675.70
2022-09-09T10:12:41.774Z,625.50
2022-09-09T10:13:41.741Z,688.40
2022-09-09T10:14:41.749Z,683.80
2022-09-09T10:15:41.811Z,635.90
2022-09-09T10:16:41.715Z,609.60
2022-09-09T10:17:41.764Z,262.90
2022-09-09T10:18:41.703Z,661.20
2022-09-09T10:19:41.695Z,713.90
2022-09-09T10:20:41.665Z,722.90
2022-09-09T10:21:41.665Z,669.10
2022-09-09T10:22:41.694Z,612.10
2022-09-09T10:23:41.633Z,796.10
2022-09-09T10:24:41.681Z,820.30
2022-09-09T10:25:41.621Z,936.40
2022-09-09T10:26:41.616Z,1020.20
2022-09-09T10:27:41.635Z,952.30
2022-09-09T10:28:41.614Z,966.60
2022-09-09T10:29:41.613Z,986.20
2022-09-09T10:30:41.591Z,945.50
2022-09-09T10:31:41.556Z,1034.00
2022-09-09T10:32:41.586Z,1049.30
2022-09-09T10:33:41.546Z,1040.60
2022-09-09T10:34:41.551Z,874.30
2022-09-09T10:35:41.524Z,747.50
2022-09-09T10:36:41.515Z,766.70
2022-09-09T10:37:41.534Z,627.00
2022-09-09T10:38:41.478Z,407.20
2022-09-09T10:39:43.146Z,240.70
2022-09-09T10:40:41.473Z,43.60
2022-09-09T10:41:41.445Z,26.60
2022-09-09T10:42:41.495Z,15.90
2022-09-09T10:43:41.441Z,12.20
2022-09-09T10:44:41.414Z,9.60
2022-09-09T10:45:41.412Z,9.30
2022-09-09T10:46:41.462Z,8.80
2022-09-09T10:47:41.423Z,11.40
2022-09-09T10:48:41.377Z,12.80
2022-09-09T10:49:41.368Z,14.50
2022-09-09T10:51:42.502Z,11.60
2022-09-09T10:52:41.600Z,12.30
2022-09-09T10:53:41.321Z,9.60
2022-09-09T10:54:41.319Z,9.60
2022-09-09T10:55:41.309Z,9.10
2022-09-09T10:56:41.305Z,8.10
2022-09-09T10:57:41.302Z,8.80
2022-09-09T10:58:41.250Z,10.50
2022-09-09T10:59:41.251Z,10.70
2022-09-09T11:00:41.236Z,10.40
2022-09-09T11:01:41.284Z,10.20
2022-09-09T11:02:41.292Z,9.80
2022-09-09T11:03:41.245Z,9.60
2022-09-09T11:04:41.198Z,9.80
2022-09-09T11:05:41.188Z,10.50
2022-09-09T11:06:41.220Z,10.50
2022-09-09T11:07:41.226Z,11.40
2022-09-09T11:08:41.172Z,11.90
2022-09-09T11:09:41.153Z,11.30
2022-09-09T11:10:41.144Z,10.80
2022-09-09T11:11:41.119Z,11.00
2022-09-09T11:12:41.159Z,10.90
2022-09-09T11:13:41.110Z,10.50
2022-09-09T11:14:41.098Z,11.70
2022-09-09T11:15:41.085Z,12.40
2022-09-09T11:16:41.116Z,12.30
2022-09-09T11:17:41.101Z,11.60
2022-09-09T11:18:41.052Z,11.20
2022-09-09T11:19:41.039Z,11.80
2022-09-09T11:20:41.034Z,10.90
2022-09-09T11:21:41.009Z,11.30
2022-09-09T11:22:41.053Z,11.80
2022-09-09T11:23:42.093Z,11.40
2022-09-09T11:24:40.978Z,11.10
2022-09-09T11:25:40.982Z,11.00
2022-09-09T11:26:40.982Z,11.10
2022-09-09T11:27:41.034Z,10.90
2022-09-09T11:28:40.944Z,11.10
2022-09-09T11:29:40.906Z,11.00
2022-09-09T11:30:57.422Z,10.70
2022-09-09T11:31:41.907Z,11.80
2022-09-09T11:32:40.921Z,13.30
2022-09-09T11:33:40.916Z,12.90
2022-09-09T11:34:40.885Z,11.90
2022-09-09T11:35:40.860Z,13.30
2022-09-09T11:36:40.833Z,13.60
2022-09-09T11:37:40.852Z,10.80
2022-09-09T11:38:40.871Z,11.70
2022-09-09T11:39:40.898Z,12.20
2022-09-09T11:40:40.820Z,13.50
2022-09-09T11:41:40.784Z,13.50
2022-09-09T11:42:40.795Z,11.30
2022-09-09T11:43:40.794Z,12.50
2022-09-09T11:44:40.782Z,11.40
2022-09-09T11:45:40.798Z,11.00
2022-09-09T11:46:40.833Z,13.20
2022-09-09T11:47:40.749Z,13.70
2022-09-09T11:48:40.797Z,12.30
2022-09-09T11:49:40.720Z,12.50
2022-09-09T11:50:40.707Z,11.50
2022-09-09T11:51:40.717Z,12.00
2022-09-09T11:52:40.675Z,11.30
2022-09-09T11:53:40.702Z,11.60
2022-09-09T11:54:40.669Z,11.90
2022-09-09T11:55:40.653Z,10.70
2022-09-09T11:56:40.624Z,10.20
2022-09-09T11:57:40.635Z,10.00
2022-09-09T11:58:40.652Z,10.10
2022-09-09T11:59:40.602Z,10.30
2022-09-09T12:00:40.579Z,10.50
2022-09-09T12:01:40.575Z,10.30
2022-09-09T12:02:40.602Z,9.80
2022-09-09T12:03:40.601Z,10.30
2022-09-09T12:04:40.634Z,11.20
2022-09-09T12:05:40.541Z,10.50
2022-09-09T12:06:40.545Z,10.70
2022-09-09T12:07:40.527Z,11.30
2022-09-09T12:08:40.569Z,12.60
2022-09-09T12:09:40.503Z,15.50
2022-09-09T12:10:40.493Z,14.60
2022-09-09T12:11:40.489Z,13.90
2022-09-09T12:12:44.044Z,12.20
2022-09-09T12:13:40.504Z,11.20
2022-09-09T12:14:40.475Z,10.40
2022-09-09T12:15:40.454Z,9.60
2022-09-09T12:16:40.500Z,8.90
2022-09-09T12:17:40.474Z,8.70
2022-09-09T12:18:40.422Z,9.20
2022-09-09T12:19:40.420Z,9.30
2022-09-09T12:20:40.436Z,9.40
2022-09-09T12:21:40.394Z,9.90
2022-09-09T12:22:40.373Z,9.70
2022-09-09T12:23:40.566Z,10.10
2022-09-09T12:24:40.360Z,10.50
2022-09-09T12:25:40.348Z,11.30
2022-09-09T12:26:40.356Z,11.60
2022-09-09T12:27:40.295Z,12.10
2022-09-09T12:28:40.335Z,12.00
2022-09-09T12:29:40.306Z,11.80
2022-09-09T12:30:40.304Z,11.50
2022-09-09T12:31:43.902Z,11.60
2022-09-09T12:32:41.258Z,11.80
2022-09-09T12:33:41.065Z,11.50
2022-09-09T12:34:40.256Z,11.40
2022-09-09T12:35:40.231Z,10.80
2022-09-09T12:36:40.224Z,10.70
2022-09-09T12:37:46.759Z,11.20
2022-09-09T12:38:40.269Z,11.00
2022-09-09T12:39:40.242Z,10.30
2022-09-09T12:40:40.172Z,10.00